Decoded Metar for UUDD (MOSCOW/DOMODEDOVO in RUSSIA) (IATA:N/A) | Meteo·Mobile Aviation Weather
aviador You're here:

UUDD Decoded Metar

MOSCOW/DOMODEDOVO in RUSSIA
Report Time2019-02-19 12:00:00
UTC Time2019-02-19 12:37:39
Flight Rules vfr VFR
Wind240° at 14 kt
W.Decomp.*RWY 14: 14.0 kt RCW
W.Rank240° ranks 4
Current wind is above 240° avg. (7.3)
Visibility9999 m
Phenomena:N/A
Clouds:N/A
Expected CloudBase > 5,600 ft AGL from Temp-Dew spread
CeilingNone
Temp02°C (ISA -12)
Dew Point-12°C (35% RH)
AAT-6.2°C
QNH1013 hPa
Density Alt-860 ft
Elevation551 ft
Report Wrong Elevation
Raw Report
METAR UUDD 191200Z 24007MPS CAVOK 02/M12 Q1013 R88/190095 NOSIG=

Extra information for UUDD:More info

Metar Taf Metar & Taf Last 4 Metars F.Rules Stats Wind Profile Meteogram Temp Stats Airport Information Weather charts Add Link Nearby VenuesMetar ALERT Operation Metar Decoded Social comments